Ilyas Efendiyev — 9HES8 — position and weather

sailwx.info

Track history (hours):
 
Tides and Currents Weather Stations Pressure Air Temp Water Temp Dewpoint Dewpoint Depression Visibility Wind Speed Wind Dir Waves Ship Positions

Ilyas Efendiyev

Last reported at 2014-Jul-25 05:32 UTC. Time now 2014-Jul-28 14:28 UTC.
Position N 38°10' W 009°39'.

Length 140 m; draft 4.6 m.

Type: Cargo ship. MMSI: 215901000.

Date/timePositionNaut miles runAvg speedWind from/ knotsBaromVisibWave heightAir tempDewpointWater temp
2014-Jul-25 05:32N 38°10' W 009°39'8 7.8
2014-Jul-25 04:29N 38°02' W 009°37'15 7.7
2014-Jul-25 02:33N 37°47' W 009°33'8 8.0
2014-Jul-25 01:29N 37°39' W 009°31'226 7.1
2014-Jul-23 17:32N 35°57' W 005°19'3 3.0
2014-Jul-23 16:31N 35°54' W 005°18'0 0.0
2014-Jul-23 15:32N 35°54' W 005°18'0 0.0
2014-Jul-23 14:31N 35°54' W 005°18'0 0.0
2014-Jul-23 13:33N 35°54' W 005°18'21 6.5
2014-Jul-23 10:19N 35°54' W 004°52'182 8.6
2014-Jul-22 13:05N 36°12' W 001°08'5 8.5
2014-Jul-22 12:27N 36°14' W 001°02'8 8.3
2014-Jul-22 11:32N 36°16' W 000°53'8 8.3
2014-Jul-22 10:32N 36°18' W 000°43'25 7.5
2014-Jul-22 07:15N 36°27' W 000°15'7 8.2
2014-Jul-22 06:23N 36°30' W 000°06'9 8.4
2014-Jul-22 05:18N 36°33' E 000°04'7 8.5
2014-Jul-22 04:26N 36°35' E 000°13'8 8.3
2014-Jul-22 03:27N 36°38' E 000°23'7 8.4
2014-Jul-22 02:33N 36°40' E 000°31'17 8.3
2014-Jul-22 00:33N 36°47' E 000°50'9 8.6
2014-Jul-21 23:32N 36°48' E 001°01'9 8.0
2014-Jul-21 22:27N 36°50' E 001°12'7 8.0
2014-Jul-21 21:33N 36°52' E 001°21'12 9.0
2014-Jul-21 20:15N 36°55' E 001°35'  
2014-Jul-19 00:30N 36°51' E 013°06'8 8.9
2014-Jul-18 23:33N 36°48' E 013°16'9 8.6
2014-Jul-18 22:33N 36°46' E 013°26'9 8.7
2014-Jul-18 21:33N 36°43' E 013°36'9 8.9
2014-Jul-18 20:33N 36°40' E 013°47'10 8.8
2014-Jul-18 19:23N 36°37' E 013°59'7 8.8
2014-Jul-18 18:33N 36°35' E 014°07'9 8.7
2014-Jul-18 17:32N 36°31' E 014°18'9 8.9
2014-Jul-18 16:33N 36°28' E 014°28'8 8.5
2014-Jul-18 15:33N 36°25' E 014°38'8 8.2
2014-Jul-18 14:33N 36°25' E 014°48'  
Track history (hours):
 
Tides and Currents Weather Stations Pressure Air Temp Water Temp Dewpoint Dewpoint Depression Visibility Wind Speed Wind Dir Waves Ship Positions

Ilyas Efendiyev

Last reported at 2014-Jul-25 05:32 UTC. Time now 2014-Jul-28 14:28 UTC.
Position N 38°10' W 009°39'.

Length 140 m; draft 4.6 m.

Type: Cargo ship. MMSI: 215901000.

Date/timePositionNaut miles runAvg speedWind from/ knotsBaromVisibWave heightAir tempDewpointWater temp
2014-Jul-25 05:32N 38°10' W 009°39'8 7.8
2014-Jul-25 04:29N 38°02' W 009°37'15 7.7
2014-Jul-25 02:33N 37°47' W 009°33'8 8.0
2014-Jul-25 01:29N 37°39' W 009°31'226 7.1
2014-Jul-23 17:32N 35°57' W 005°19'3 3.0
2014-Jul-23 16:31N 35°54' W 005°18'0 0.0
2014-Jul-23 15:32N 35°54' W 005°18'0 0.0
2014-Jul-23 14:31N 35°54' W 005°18'0 0.0
2014-Jul-23 13:33N 35°54' W 005°18'21 6.5
2014-Jul-23 10:19N 35°54' W 004°52'182 8.6
2014-Jul-22 13:05N 36°12' W 001°08'5 8.5
2014-Jul-22 12:27N 36°14' W 001°02'8 8.3
2014-Jul-22 11:32N 36°16' W 000°53'8 8.3
2014-Jul-22 10:32N 36°18' W 000°43'25 7.5
2014-Jul-22 07:15N 36°27' W 000°15'7 8.2
2014-Jul-22 06:23N 36°30' W 000°06'9 8.4
2014-Jul-22 05:18N 36°33' E 000°04'7 8.5
2014-Jul-22 04:26N 36°35' E 000°13'8 8.3
2014-Jul-22 03:27N 36°38' E 000°23'7 8.4
2014-Jul-22 02:33N 36°40' E 000°31'17 8.3
2014-Jul-22 00:33N 36°47' E 000°50'9 8.6
2014-Jul-21 23:32N 36°48' E 001°01'9 8.0
2014-Jul-21 22:27N 36°50' E 001°12'7 8.0
2014-Jul-21 21:33N 36°52' E 001°21'12 9.0
2014-Jul-21 20:15N 36°55' E 001°35'  
2014-Jul-19 00:30N 36°51' E 013°06'8 8.9
2014-Jul-18 23:33N 36°48' E 013°16'9 8.6
2014-Jul-18 22:33N 36°46' E 013°26'9 8.7
2014-Jul-18 21:33N 36°43' E 013°36'9 8.9
2014-Jul-18 20:33N 36°40' E 013°47'10 8.8
2014-Jul-18 19:23N 36°37' E 013°59'7 8.8
2014-Jul-18 18:33N 36°35' E 014°07'9 8.7
2014-Jul-18 17:32N 36°31' E 014°18'9 8.9
2014-Jul-18 16:33N 36°28' E 014°28'8 8.5
2014-Jul-18 15:33N 36°25' E 014°38'8 8.2
2014-Jul-18 14:33N 36°25' E 014°48'  

Dump ship's entire track history